createdAt,value
2022-10-21T00:00:58.970Z,97831.00
2022-10-21T00:03:34.119Z,97818.00
2022-10-21T00:06:10.195Z,97823.00
2022-10-21T00:08:45.189Z,97853.00
2022-10-21T00:11:20.151Z,97852.00
2022-10-21T00:13:55.371Z,97838.00
2022-10-21T00:16:30.316Z,97845.00
2022-10-21T00:19:05.242Z,97855.00
2022-10-21T00:21:41.036Z,97841.00
2022-10-21T00:24:16.150Z,97844.00
2022-10-21T00:26:51.231Z,97840.00
2022-10-21T00:29:26.197Z,97837.00
2022-10-21T00:32:01.155Z,97854.00
2022-10-21T00:34:36.120Z,97860.00
2022-10-21T00:37:11.395Z,97861.00
2022-10-21T00:39:46.404Z,97846.00
2022-10-21T00:42:23.383Z,97839.00
2022-10-21T00:45:07.558Z,97829.00
2022-10-21T00:47:55.471Z,97832.00
2022-10-21T00:50:52.547Z,97831.00
2022-10-21T00:53:28.225Z,97827.00
2022-10-21T00:56:15.602Z,97827.00
2022-10-21T00:58:54.604Z,97824.00
2022-10-21T01:01:30.193Z,97827.00
2022-10-21T01:04:05.997Z,97833.00
2022-10-21T01:06:42.537Z,97827.00
2022-10-21T01:09:20.047Z,97835.00
2022-10-21T01:11:55.238Z,97822.00
2022-10-21T01:14:53.328Z,97819.00
2022-10-21T01:17:49.415Z,97829.00
2022-10-21T01:20:44.200Z,97822.00
2022-10-21T01:23:52.780Z,97817.00
2022-10-21T01:27:05.780Z,97819.00
2022-10-21T01:30:01.313Z,97817.00
2022-10-21T01:36:26.117Z,97815.00
2022-10-21T01:39:19.602Z,97815.00
2022-10-21T01:42:17.909Z,97819.00
2022-10-21T01:45:14.247Z,97803.00
2022-10-21T01:47:54.589Z,97797.00
2022-10-21T01:50:36.470Z,97794.00
2022-10-21T01:53:15.100Z,97795.00
2022-10-21T01:55:51.771Z,97797.00
2022-10-21T01:58:31.901Z,97799.00
2022-10-21T02:01:09.703Z,97800.00
2022-10-21T02:03:49.435Z,97791.00
2022-10-21T02:06:25.296Z,97797.00
2022-10-21T02:09:00.718Z,97787.00
2022-10-21T02:11:39.021Z,97785.00
2022-10-21T02:14:37.261Z,97778.00
2022-10-21T02:17:17.338Z,97771.00
2022-10-21T02:19:52.389Z,97767.00
2022-10-21T02:22:28.394Z,97753.00
2022-10-21T02:25:16.333Z,97741.00
2022-10-21T02:27:52.325Z,97739.00
2022-10-21T02:30:34.780Z,97728.00
2022-10-21T02:33:24.424Z,97718.00
2022-10-21T02:36:16.289Z,97721.00
2022-10-21T02:38:58.345Z,97724.00
2022-10-21T02:41:35.137Z,97709.00
2022-10-21T02:44:10.378Z,97701.00
2022-10-21T02:46:48.038Z,97694.00
2022-10-21T02:49:22.926Z,97690.00
2022-10-21T02:51:57.923Z,97690.00
2022-10-21T02:54:32.839Z,97696.00
2022-10-21T02:57:07.865Z,97688.00
2022-10-21T02:59:42.766Z,97686.00
2022-10-21T03:02:17.842Z,97662.00
2022-10-21T03:04:52.760Z,97646.00
2022-10-21T03:07:27.737Z,97646.00
2022-10-21T03:10:02.803Z,97658.00
2022-10-21T03:12:37.785Z,97681.00
2022-10-21T03:15:12.664Z,97667.00
2022-10-21T03:17:48.321Z,97659.00
2022-10-21T03:20:23.309Z,97650.00
2022-10-21T03:22:58.205Z,97638.00
2022-10-21T03:25:35.720Z,97639.00
2022-10-21T03:28:11.121Z,97642.00
2022-10-21T03:30:46.084Z,97653.00
2022-10-21T03:33:21.001Z,97645.00
2022-10-21T03:35:55.893Z,97649.00
2022-10-21T03:38:30.902Z,97645.00
2022-10-21T03:41:05.942Z,97645.00
2022-10-21T03:43:40.857Z,97639.00
2022-10-21T03:46:15.744Z,97646.00
2022-10-21T03:48:50.582Z,97642.00
2022-10-21T03:51:25.440Z,97641.00
2022-10-21T03:54:00.405Z,97634.00
2022-10-21T03:56:35.314Z,97628.00
2022-10-21T03:59:10.233Z,97633.00
2022-10-21T04:01:45.277Z,97630.00
2022-10-21T04:04:20.296Z,97630.00
2022-10-21T04:06:55.185Z,97638.00
2022-10-21T04:09:30.053Z,97630.00
2022-10-21T04:12:05.153Z,97623.00
2022-10-21T04:14:40.069Z,97615.00
2022-10-21T04:17:14.954Z,97612.00
2022-10-21T04:19:49.872Z,97611.00
2022-10-21T04:22:24.866Z,97612.00
2022-10-21T04:25:02.272Z,97611.00
2022-10-21T04:27:39.582Z,97607.00
2022-10-21T04:30:14.489Z,97604.00
2022-10-21T04:32:50.831Z,97599.00
2022-10-21T04:35:25.783Z,97593.00
2022-10-21T04:38:00.678Z,97596.00
2022-10-21T04:40:35.787Z,97592.00
2022-10-21T04:43:10.711Z,97591.00
2022-10-21T04:45:45.691Z,97595.00
2022-10-21T04:48:21.458Z,97592.00
2022-10-21T04:50:56.902Z,97591.00
2022-10-21T04:53:32.477Z,97599.00
2022-10-21T04:56:07.688Z,97582.00
2022-10-21T04:58:42.591Z,97588.00
2022-10-21T05:01:17.608Z,97579.00
2022-10-21T05:03:52.559Z,97590.00
2022-10-21T05:06:27.501Z,97579.00
2022-10-21T05:09:02.486Z,97584.00
2022-10-21T05:11:37.432Z,97594.00
2022-10-21T05:14:12.527Z,97583.00
2022-10-21T05:16:47.454Z,97582.00
2022-10-21T05:19:22.350Z,97579.00
2022-10-21T05:21:57.374Z,97583.00
2022-10-21T05:24:32.431Z,97583.00
2022-10-21T05:27:07.373Z,97585.00
2022-10-21T05:29:42.262Z,97591.00
2022-10-21T05:32:21.159Z,97582.00
2022-10-21T05:34:56.006Z,97581.00
2022-10-21T05:37:30.965Z,97586.00
2022-10-21T05:40:07.172Z,97580.00
2022-10-21T05:42:42.110Z,97579.00
2022-10-21T05:45:17.277Z,97580.00
2022-10-21T05:47:52.161Z,97582.00
2022-10-21T05:50:27.234Z,97573.00
2022-10-21T05:53:02.297Z,97578.00
2022-10-21T05:55:37.279Z,97570.00
2022-10-21T05:58:12.194Z,97568.00
2022-10-21T06:00:48.594Z,97566.00
2022-10-21T06:03:29.795Z,97560.00
2022-10-21T06:06:07.672Z,97554.00
2022-10-21T06:08:42.724Z,97549.00
2022-10-21T06:11:19.759Z,97547.00
2022-10-21T06:13:54.721Z,97560.00
2022-10-21T06:16:29.678Z,97566.00
2022-10-21T06:19:04.541Z,97566.00
2022-10-21T06:21:39.464Z,97575.00
2022-10-21T06:24:14.896Z,97578.00
2022-10-21T06:26:51.349Z,97586.00
2022-10-21T06:29:27.522Z,97592.00
2022-10-21T06:32:02.842Z,97592.00
2022-10-21T06:34:38.535Z,97592.00
2022-10-21T06:37:13.926Z,97598.00
2022-10-21T06:39:48.963Z,97591.00
2022-10-21T06:42:23.888Z,97597.00
2022-10-21T06:45:00.407Z,97609.00
2022-10-21T06:47:35.825Z,97606.00
2022-10-21T06:50:12.120Z,97603.00
2022-10-21T06:52:50.938Z,97612.00
2022-10-21T06:55:25.832Z,97605.00
2022-10-21T06:58:01.023Z,97623.00
2022-10-21T07:00:37.484Z,97636.00
2022-10-21T07:03:12.399Z,97634.00
2022-10-21T07:05:47.348Z,97642.00
2022-10-21T07:08:22.476Z,97654.00
2022-10-21T07:11:05.619Z,97633.00
2022-10-21T07:13:40.953Z,97646.00
2022-10-21T07:16:24.045Z,97632.00
2022-10-21T07:18:59.159Z,97643.00
2022-10-21T07:21:34.511Z,97631.00
2022-10-21T07:24:10.575Z,97621.00
2022-10-21T07:26:45.494Z,97615.00
2022-10-21T07:29:20.460Z,97579.00
2022-10-21T07:31:55.529Z,97560.00
2022-10-21T07:34:30.507Z,97590.00
2022-10-21T07:37:05.444Z,97604.00
2022-10-21T07:39:40.425Z,97613.00
2022-10-21T07:42:15.362Z,97609.00
2022-10-21T07:44:57.250Z,97621.00
2022-10-21T07:47:32.113Z,97638.00
2022-10-21T07:50:07.562Z,97618.00
2022-10-21T07:52:51.930Z,97631.00
2022-10-21T07:55:38.876Z,97629.00
2022-10-21T07:58:13.787Z,97625.00
2022-10-21T08:00:48.755Z,97620.00
2022-10-21T08:03:23.747Z,97638.00
2022-10-21T08:05:59.626Z,97645.00
2022-10-21T08:08:35.922Z,97627.00
2022-10-21T08:11:11.150Z,97621.00
2022-10-21T08:13:46.144Z,97617.00
2022-10-21T08:16:21.430Z,97621.00
2022-10-21T08:18:59.772Z,97614.00
2022-10-21T08:21:36.680Z,97620.00
2022-10-21T08:24:11.584Z,97626.00
2022-10-21T08:26:46.510Z,97632.00
2022-10-21T08:29:21.546Z,97630.00
2022-10-21T08:31:56.693Z,97634.00
2022-10-21T08:34:31.704Z,97625.00
2022-10-21T08:37:06.726Z,97615.00
2022-10-21T08:39:41.605Z,97603.00
2022-10-21T08:42:17.925Z,97592.00
2022-10-21T08:45:08.342Z,97602.00
2022-10-21T08:47:50.104Z,97605.00
2022-10-21T08:50:41.410Z,97594.00
2022-10-21T08:53:46.994Z,97617.00
2022-10-21T08:56:22.888Z,97630.00
2022-10-21T08:58:58.196Z,97616.00
2022-10-21T09:01:59.589Z,97631.00
2022-10-21T09:04:56.258Z,97686.00
2022-10-21T09:07:58.928Z,97623.00
2022-10-21T09:10:45.672Z,97572.00
2022-10-21T09:13:32.656Z,97690.00
2022-10-21T09:16:19.278Z,97674.00
2022-10-21T09:19:26.959Z,97658.00
2022-10-21T09:22:35.223Z,97663.00
2022-10-21T09:25:28.638Z,97669.00
2022-10-21T09:28:16.049Z,97674.00
2022-10-21T09:30:52.645Z,97680.00
2022-10-21T09:33:32.215Z,97690.00
2022-10-21T09:36:34.897Z,97685.00
2022-10-21T09:39:30.558Z,97702.00
2022-10-21T09:42:11.523Z,97699.00
2022-10-21T09:44:58.383Z,97700.00
2022-10-21T09:47:33.238Z,97699.00
2022-10-21T09:50:16.840Z,97693.00
2022-10-21T09:53:09.900Z,97712.00
2022-10-21T09:55:50.304Z,97709.00
2022-10-21T09:59:06.994Z,97715.00
2022-10-21T10:01:43.783Z,97731.00
2022-10-21T10:04:34.846Z,97727.00
2022-10-21T10:07:39.290Z,97719.00
2022-10-21T10:10:33.764Z,97723.00
2022-10-21T10:13:23.048Z,97723.00
2022-10-21T10:16:22.309Z,97718.00
2022-10-21T10:19:18.097Z,97716.00
2022-10-21T10:22:16.260Z,97723.00
2022-10-21T10:24:51.316Z,97712.00
2022-10-21T10:27:27.001Z,97717.00
2022-10-21T10:30:06.285Z,97719.00
2022-10-21T10:32:41.825Z,97722.00
2022-10-21T10:35:37.901Z,97715.00
2022-10-21T10:38:26.581Z,97721.00
2022-10-21T10:41:18.392Z,97721.00
2022-10-21T10:43:55.604Z,97723.00
2022-10-21T10:46:34.260Z,97729.00
2022-10-21T10:49:18.088Z,97732.00
2022-10-21T10:52:11.051Z,97729.00
2022-10-21T10:54:46.066Z,97724.00
2022-10-21T10:57:35.340Z,97726.00
2022-10-21T11:00:22.717Z,97733.00
2022-10-21T11:03:05.354Z,97724.00
2022-10-21T11:05:48.685Z,97716.00
2022-10-21T11:08:34.226Z,97721.00
2022-10-21T11:11:38.495Z,97713.00
2022-10-21T11:14:20.421Z,97719.00
2022-10-21T11:17:12.216Z,97719.00
2022-10-21T11:20:17.636Z,97726.00
2022-10-21T11:23:18.425Z,97733.00
2022-10-21T11:26:07.051Z,97730.00
2022-10-21T11:29:01.380Z,97727.00
2022-10-21T11:32:41.670Z,97735.00
2022-10-21T11:36:01.264Z,97743.00
2022-10-21T11:39:07.446Z,97731.00
2022-10-21T11:42:12.935Z,97734.00
2022-10-21T11:45:23.250Z,97736.00
2022-10-21T11:48:15.844Z,97733.00
2022-10-21T11:51:37.672Z,97724.00
2022-10-21T11:54:30.190Z,97721.00
2022-10-21T11:57:32.329Z,97734.00
2022-10-21T12:00:19.966Z,97728.00
2022-10-21T12:03:31.850Z,97730.00
2022-10-21T12:06:45.376Z,97730.00
2022-10-21T12:09:30.987Z,97724.00
2022-10-21T12:12:23.237Z,97723.00
2022-10-21T12:15:04.817Z,97721.00
2022-10-21T12:17:39.902Z,97720.00
2022-10-21T12:20:23.956Z,97722.00
2022-10-21T12:23:06.554Z,97721.00
2022-10-21T12:26:18.205Z,97727.00
2022-10-21T12:29:06.527Z,97730.00
2022-10-21T12:32:15.737Z,97724.00
2022-10-21T12:34:50.643Z,97736.00
2022-10-21T12:37:52.013Z,97724.00
2022-10-21T12:40:26.790Z,97723.00
2022-10-21T12:43:05.955Z,97723.00
2022-10-21T12:45:41.238Z,97727.00
2022-10-21T12:48:44.117Z,97729.00
2022-10-21T12:51:28.639Z,97725.00
2022-10-21T12:54:03.473Z,97727.00
2022-10-21T12:56:50.057Z,97718.00
2022-10-21T12:59:38.735Z,97722.00
2022-10-21T13:02:28.365Z,97717.00
2022-10-21T13:05:03.467Z,97717.00
2022-10-21T13:07:39.618Z,97725.00
2022-10-21T13:10:23.983Z,97720.00
2022-10-21T13:13:36.701Z,97718.00
2022-10-21T13:16:20.847Z,97707.00
2022-10-21T13:19:32.412Z,97705.00
2022-10-21T13:22:36.299Z,97719.00
2022-10-21T13:25:24.398Z,97711.00
2022-10-21T13:28:14.571Z,97705.00
2022-10-21T13:30:49.442Z,97703.00
2022-10-21T13:33:37.161Z,97702.00
2022-10-21T13:36:14.223Z,97693.00
2022-10-21T13:38:52.924Z,97695.00
2022-10-21T13:41:30.263Z,97693.00
2022-10-21T13:44:07.309Z,97689.00
2022-10-21T13:46:43.717Z,97686.00
2022-10-21T13:49:33.688Z,97701.00
2022-10-21T13:52:10.935Z,97703.00
2022-10-21T13:54:46.130Z,97694.00
2022-10-21T13:57:21.076Z,97693.00
2022-10-21T14:00:07.238Z,97690.00
2022-10-21T14:02:54.051Z,97696.00
2022-10-21T14:05:40.420Z,97685.00
2022-10-21T14:08:34.178Z,97698.00
2022-10-21T14:11:18.762Z,97688.00
2022-10-21T14:13:56.738Z,97698.00
2022-10-21T14:16:37.534Z,97678.00
2022-10-21T14:19:20.946Z,97680.00
2022-10-21T14:21:59.326Z,97675.00
2022-10-21T14:24:43.380Z,97671.00
2022-10-21T14:27:48.830Z,97669.00
2022-10-21T14:30:27.491Z,97665.00
2022-10-21T14:33:04.846Z,97667.00
2022-10-21T14:35:39.879Z,97678.00
2022-10-21T14:38:42.465Z,97677.00
2022-10-21T14:41:32.693Z,97674.00
2022-10-21T14:44:23.358Z,97683.00
2022-10-21T14:46:59.458Z,97679.00
2022-10-21T14:49:48.861Z,97666.00
2022-10-21T14:52:29.885Z,97668.00
2022-10-21T14:55:15.862Z,97689.00
2022-10-21T14:57:53.793Z,97687.00
2022-10-21T15:00:41.510Z,97683.00
2022-10-21T15:03:38.989Z,97676.00
2022-10-21T15:06:24.622Z,97682.00
2022-10-21T15:09:18.124Z,97687.00
2022-10-21T15:11:53.010Z,97673.00
2022-10-21T15:14:30.411Z,97674.00
2022-10-21T15:17:10.432Z,97674.00
2022-10-21T15:19:51.213Z,97673.00
2022-10-21T15:22:34.689Z,97670.00
2022-10-21T15:25:19.301Z,97671.00
2022-10-21T15:27:57.113Z,97657.00
2022-10-21T15:30:35.272Z,97660.00
2022-10-21T15:33:12.244Z,97662.00
2022-10-21T15:36:01.126Z,97659.00
2022-10-21T15:38:36.765Z,97654.00
2022-10-21T15:41:21.507Z,97667.00
2022-10-21T15:43:56.379Z,97664.00
2022-10-21T15:46:45.633Z,97660.00
2022-10-21T15:49:23.350Z,97653.00
2022-10-21T15:51:58.340Z,97669.00
2022-10-21T15:54:33.784Z,97649.00
2022-10-21T15:57:21.181Z,97636.00
2022-10-21T15:59:56.165Z,97638.00
2022-10-21T16:02:31.065Z,97649.00
2022-10-21T16:05:06.297Z,97652.00
2022-10-21T16:07:42.033Z,97640.00
2022-10-21T16:10:32.154Z,97640.00
2022-10-21T16:13:07.517Z,97642.00
2022-10-21T16:15:42.566Z,97656.00
2022-10-21T16:18:17.442Z,97663.00
2022-10-21T16:20:54.921Z,97670.00
2022-10-21T16:23:31.594Z,97658.00
2022-10-21T16:26:22.954Z,97650.00
2022-10-21T16:28:58.442Z,97663.00
2022-10-21T16:31:33.377Z,97666.00
2022-10-21T16:34:08.460Z,97667.00
2022-10-21T16:36:43.708Z,97676.00
2022-10-21T16:39:25.333Z,97671.00
2022-10-21T16:42:00.291Z,97667.00
2022-10-21T16:44:35.157Z,97665.00
2022-10-21T16:47:17.471Z,97669.00
2022-10-21T16:49:52.380Z,97660.00
2022-10-21T16:52:27.273Z,97672.00
2022-10-21T16:55:02.148Z,97666.00
2022-10-21T16:57:37.381Z,97672.00
2022-10-21T17:00:13.808Z,97671.00
2022-10-21T17:02:49.930Z,97678.00
2022-10-21T17:05:25.567Z,97676.00
2022-10-21T17:08:00.450Z,97674.00
2022-10-21T17:10:35.378Z,97667.00
2022-10-21T17:13:12.097Z,97672.00
2022-10-21T17:15:47.079Z,97667.00
2022-10-21T17:18:21.943Z,97668.00
2022-10-21T17:20:56.858Z,97671.00
2022-10-21T17:23:32.280Z,97668.00
2022-10-21T17:26:07.180Z,97668.00
2022-10-21T17:28:42.026Z,97668.00
2022-10-21T17:31:29.010Z,97674.00
2022-10-21T17:34:08.109Z,97678.00
2022-10-21T17:36:42.989Z,97672.00
2022-10-21T17:39:17.873Z,97678.00
2022-10-21T17:41:53.167Z,97684.00
2022-10-21T17:44:28.528Z,97676.00
2022-10-21T17:47:03.409Z,97664.00
2022-10-21T17:49:39.070Z,97666.00
2022-10-21T17:52:13.916Z,97666.00
2022-10-21T17:54:48.828Z,97666.00
2022-10-21T17:57:24.006Z,97665.00
2022-10-21T18:00:04.387Z,97665.00
2022-10-21T18:02:40.012Z,97661.00
2022-10-21T18:05:15.057Z,97663.00
2022-10-21T18:07:49.991Z,97677.00
2022-10-21T18:10:24.850Z,97673.00
2022-10-21T18:12:59.854Z,97668.00
2022-10-21T18:15:37.671Z,97665.00
2022-10-21T18:18:12.897Z,97658.00
2022-10-21T18:20:48.192Z,97652.00
2022-10-21T18:23:23.315Z,97646.00
2022-10-21T18:26:05.702Z,97647.00
2022-10-21T18:28:40.782Z,97647.00
2022-10-21T18:31:15.853Z,97644.00
2022-10-21T18:33:54.679Z,97635.00
2022-10-21T18:36:30.259Z,97633.00
2022-10-21T18:39:05.985Z,97639.00
2022-10-21T18:41:41.391Z,97641.00
2022-10-21T18:44:16.273Z,97643.00
2022-10-21T18:46:53.719Z,97633.00
2022-10-21T18:49:30.952Z,97638.00
2022-10-21T18:52:05.928Z,97643.00
2022-10-21T18:54:40.945Z,97642.00
2022-10-21T18:57:15.920Z,97642.00
2022-10-21T18:59:50.783Z,97644.00
2022-10-21T19:02:25.670Z,97633.00
2022-10-21T19:05:02.110Z,97638.00
2022-10-21T19:07:37.948Z,97637.00
2022-10-21T19:10:14.007Z,97642.00
2022-10-21T19:12:48.916Z,97648.00
2022-10-21T19:15:23.880Z,97644.00
2022-10-21T19:17:58.749Z,97647.00
2022-10-21T19:20:33.632Z,97657.00
2022-10-21T19:23:08.585Z,97641.00
2022-10-21T19:25:43.532Z,97650.00
2022-10-21T19:28:18.576Z,97638.00
2022-10-21T19:30:53.480Z,97638.00
2022-10-21T19:33:29.932Z,97645.00
2022-10-21T19:36:06.468Z,97643.00
2022-10-21T19:38:44.916Z,97647.00
2022-10-21T19:41:22.637Z,97645.00
2022-10-21T19:44:00.740Z,97642.00
2022-10-21T19:46:36.351Z,97652.00
2022-10-21T19:49:14.261Z,97643.00
2022-10-21T19:51:49.207Z,97653.00
2022-10-21T19:54:24.096Z,97651.00
2022-10-21T19:56:59.083Z,97645.00
2022-10-21T19:59:34.037Z,97648.00
2022-10-21T20:02:11.022Z,97643.00
2022-10-21T20:04:46.143Z,97648.00
2022-10-21T20:07:21.005Z,97656.00
2022-10-21T20:09:56.094Z,97655.00
2022-10-21T20:12:31.543Z,97656.00
2022-10-21T20:15:07.994Z,97666.00
2022-10-21T20:17:42.906Z,97665.00
2022-10-21T20:20:17.853Z,97670.00
2022-10-21T20:22:52.802Z,97669.00
2022-10-21T20:25:27.746Z,97672.00
2022-10-21T20:28:02.644Z,97673.00
2022-10-21T20:30:37.520Z,97674.00
2022-10-21T20:33:12.524Z,97677.00
2022-10-21T20:35:47.427Z,97684.00
2022-10-21T20:38:22.536Z,97689.00
2022-10-21T20:41:06.131Z,97691.00
2022-10-21T20:43:42.505Z,97693.00
2022-10-21T20:46:20.018Z,97695.00
2022-10-21T20:48:55.308Z,97697.00
2022-10-21T20:51:30.576Z,97695.00
2022-10-21T20:54:14.397Z,97698.00
2022-10-21T20:56:49.296Z,97698.00
2022-10-21T20:59:24.813Z,97689.00
2022-10-21T21:01:59.769Z,97683.00
2022-10-21T21:04:34.721Z,97683.00
2022-10-21T21:07:13.365Z,97691.00
2022-10-21T21:10:02.173Z,97701.00
2022-10-21T21:12:38.289Z,97699.00
2022-10-21T21:15:13.391Z,97701.00
2022-10-21T21:17:49.462Z,97711.00
2022-10-21T21:20:24.439Z,97715.00
2022-10-21T21:22:59.264Z,97718.00
2022-10-21T21:25:34.148Z,97710.00
2022-10-21T21:28:09.038Z,97719.00
2022-10-21T21:30:52.181Z,97737.00
2022-10-21T21:33:27.322Z,97741.00
2022-10-21T21:36:04.606Z,97747.00
2022-10-21T21:38:39.568Z,97760.00
2022-10-21T21:41:16.503Z,97774.00
2022-10-21T21:43:53.706Z,97776.00
2022-10-21T21:46:28.587Z,97776.00
2022-10-21T21:49:06.262Z,97768.00
2022-10-21T21:51:41.341Z,97761.00
2022-10-21T21:54:16.273Z,97765.00
2022-10-21T21:56:54.460Z,97768.00
2022-10-21T21:59:35.716Z,97760.00
2022-10-21T22:02:10.632Z,97779.00
2022-10-21T22:04:46.297Z,97784.00
2022-10-21T22:07:21.328Z,97758.00
2022-10-21T22:09:56.257Z,97755.00
2022-10-21T22:12:31.230Z,97750.00
2022-10-21T22:15:07.006Z,97750.00
2022-10-21T22:17:42.319Z,97741.00
2022-10-21T22:20:19.040Z,97757.00
2022-10-21T22:22:53.914Z,97751.00
2022-10-21T22:25:28.905Z,97743.00
2022-10-21T22:28:03.792Z,97743.00
2022-10-21T22:30:38.681Z,97753.00
2022-10-21T22:33:13.640Z,97760.00
2022-10-21T22:35:48.636Z,97770.00
2022-10-21T22:38:24.024Z,97758.00
2022-10-21T22:41:01.784Z,97767.00
2022-10-21T22:43:36.746Z,97755.00
2022-10-21T22:49:06.933Z,97755.00
2022-10-21T22:51:41.875Z,97758.00
2022-10-21T22:54:36.058Z,97766.00
2022-10-21T22:57:11.924Z,97765.00
2022-10-21T22:59:52.057Z,97768.00
2022-10-21T23:02:27.964Z,97780.00
2022-10-21T23:05:02.981Z,97789.00
2022-10-21T23:07:37.905Z,97790.00
2022-10-21T23:10:12.987Z,97795.00
2022-10-21T23:12:47.864Z,97794.00
2022-10-21T23:15:22.705Z,97805.00
2022-10-21T23:17:58.181Z,97799.00
2022-10-21T23:20:33.135Z,97798.00
2022-10-21T23:23:08.108Z,97805.00
2022-10-21T23:25:43.672Z,97816.00
2022-10-21T23:30:59.368Z,97837.00
2022-10-21T23:33:34.180Z,97835.00
2022-10-21T23:36:09.183Z,97832.00
2022-10-21T23:38:44.074Z,97829.00
2022-10-21T23:41:19.030Z,97833.00
2022-10-21T23:43:54.032Z,97837.00
2022-10-21T23:46:28.957Z,97832.00
2022-10-21T23:49:03.987Z,97827.00
2022-10-21T23:51:38.890Z,97822.00
2022-10-21T23:54:13.831Z,97820.00
2022-10-21T23:56:48.693Z,97826.00
2022-10-21T23:59:23.767Z,97829.00
